Time,TemperatureF,DewpointF,PressureIn,WindDirection,WindDirectionDegrees,WindSpeedMPH,WindSpeedGustMPH,Humidity,HourlyPrecipIn,Conditions,Clouds,dailyrainin,SolarRadiationWatts/m^2,SoftwareType,DateUTC
2013-01-16 00:02:00,29.0,-3.0,-100.00,NE,42,8.0,20.0,24,0.00,,,0.01,0.000000,,2013-01-16 07:02:00,
2013-01-16 00:11:00,29.0,-3.0,-100.00,NE,42,8.0,20.0,24,0.00,,,0.01,0.000000,,2013-01-16 07:11:00,
2013-01-16 00:22:00,29.0,-3.0,-100.00,NE,42,8.0,20.0,24,0.00,,,0.01,0.000000,,2013-01-16 07:22:00,
2013-01-16 00:32:00,29.0,-3.0,-100.00,NE,42,8.0,20.0,24,0.00,,,0.01,0.000000,,2013-01-16 07:32:00,
2013-01-16 01:02:00,30.0,-2.0,-100.00,NNE,27,8.0,13.0,24,0.00,,,0.01,0.000000,,2013-01-16 08:02:00,
2013-01-16 01:12:00,30.0,-2.0,-100.00,NNE,27,8.0,13.0,24,0.00,,,0.01,0.000000,,2013-01-16 08:12:00,
2013-01-16 01:22:00,30.0,-2.0,-100.00,NNE,27,8.0,13.0,24,0.00,,,0.01,0.000000,,2013-01-16 08:22:00,
2013-01-16 01:32:00,30.0,-2.0,-100.00,NNE,27,8.0,13.0,24,0.00,,,0.01,0.000000,,2013-01-16 08:32:00,
2013-01-16 02:02:00,27.0,-3.0,-100.00,NE,44,7.0,13.0,26,0.00,,,0.01,0.000000,,2013-01-16 09:02:00,
2013-01-16 02:11:00,27.0,-3.0,-100.00,NE,44,7.0,13.0,26,0.00,,,0.01,0.000000,,2013-01-16 09:11:00,
2013-01-16 02:22:00,27.0,-3.0,-100.00,NE,44,7.0,13.0,26,0.00,,,0.01,0.000000,,2013-01-16 09:22:00,
2013-01-16 02:32:00,27.0,-3.0,-100.00,NE,44,7.0,13.0,26,0.00,,,0.01,0.000000,,2013-01-16 09:32:00,
2013-01-16 03:02:00,26.0,-3.0,-100.00,NE,46,10.0,16.0,28,0.00,,,0.01,0.000000,,2013-01-16 10:02:00,
2013-01-16 03:12:00,26.0,-3.0,-100.00,NE,46,10.0,16.0,28,0.00,,,0.01,0.000000,,2013-01-16 10:12:00,
2013-01-16 03:22:00,26.0,-3.0,-100.00,NE,46,10.0,16.0,28,0.00,,,0.01,0.000000,,2013-01-16 10:22:00,
2013-01-16 03:32:00,26.0,-3.0,-100.00,NE,46,10.0,16.0,28,0.00,,,0.01,0.000000,,2013-01-16 10:32:00,
2013-01-16 04:02:00,28.0,-2.0,-100.00,NNE,20,10.0,20.0,26,0.00,,,0.01,0.000000,,2013-01-16 11:02:00,
2013-01-16 04:12:00,28.0,-2.0,-100.00,NNE,20,10.0,20.0,26,0.00,,,0.01,0.000000,,2013-01-16 11:12:00,
2013-01-16 04:22:00,28.0,-2.0,-100.00,NNE,20,10.0,20.0,26,0.00,,,0.01,0.000000,,2013-01-16 11:22:00,
2013-01-16 04:32:00,28.0,-2.0,-100.00,NNE,20,10.0,20.0,26,0.00,,,0.01,0.000000,,2013-01-16 11:32:00,
2013-01-16 04:53:00,30.0,1.0,-100.00,NNE,14,9.0,18.0,28,0.00,,,0.01,0.000000,,2013-01-16 11:53:00,
2013-01-16 05:03:00,30.0,1.0,-100.00,NNE,14,9.0,18.0,28,0.00,,,0.01,0.000000,,2013-01-16 12:03:00,
2013-01-16 05:12:00,30.0,1.0,-100.00,NNE,14,9.0,18.0,28,0.00,,,0.01,0.000000,,2013-01-16 12:12:00,
2013-01-16 05:22:00,30.0,1.0,-100.00,NNE,14,9.0,18.0,28,0.00,,,0.01,0.000000,,2013-01-16 12:22:00,
2013-01-16 05:32:00,30.0,1.0,-100.00,NNE,14,9.0,18.0,28,0.00,,,0.01,0.000000,,2013-01-16 12:32:00,
2013-01-16 06:02:00,29.0,-2.0,-100.00,NNE,32,8.0,16.0,26,0.00,,,0.01,0.000000,,2013-01-16 13:02:00,
2013-01-16 06:12:00,29.0,-2.0,-100.00,NNE,32,8.0,16.0,26,0.00,,,0.01,0.000000,,2013-01-16 13:12:00,
2013-01-16 06:22:00,29.0,-2.0,-100.00,NNE,32,8.0,16.0,26,0.00,,,0.01,0.000000,,2013-01-16 13:22:00,
2013-01-16 06:32:00,29.0,-2.0,-100.00,NNE,32,8.0,16.0,26,0.00,,,0.01,0.000000,,2013-01-16 13:32:00,
2013-01-16 07:03:00,30.0,-1.0,-100.00,NNE,18,8.0,19.0,26,0.00,,,0.01,0.000000,,2013-01-16 14:03:00,
2013-01-16 07:12:00,30.0,-1.0,-100.00,NNE,18,8.0,19.0,26,0.00,,,0.01,0.000000,,2013-01-16 14:12:00,
2013-01-16 07:22:00,30.0,-1.0,-100.00,NNE,18,8.0,19.0,26,0.00,,,0.01,0.000000,,2013-01-16 14:22:00,
2013-01-16 07:32:00,30.0,-1.0,-100.00,NNE,18,8.0,19.0,26,0.00,,,0.01,0.000000,,2013-01-16 14:32:00,
2013-01-16 08:03:00,35.0,4.0,-100.00,NE,46,13.0,21.0,27,0.00,,,0.01,4.000000,,2013-01-16 15:03:00,
2013-01-16 08:12:00,35.0,4.0,-100.00,NE,46,13.0,21.0,27,0.00,,,0.01,4.000000,,2013-01-16 15:12:00,
2013-01-16 08:22:00,35.0,4.0,-100.00,NE,46,13.0,21.0,27,0.00,,,0.01,4.000000,,2013-01-16 15:22:00,
2013-01-16 08:32:00,35.0,4.0,-100.00,NE,46,13.0,21.0,27,0.00,,,0.01,4.000000,,2013-01-16 15:32:00,
2013-01-16 08:53:00,39.0,5.0,-100.00,NNE,32,10.0,24.0,24,0.00,,,-99.99,155.000000,,2013-01-16 15:53:00,
2013-01-16 09:03:00,39.0,5.0,-100.00,NNE,32,10.0,24.0,24,0.00,,,-99.99,155.000000,,2013-01-16 16:03:00,
2013-01-16 09:12:00,39.0,5.0,-100.00,NNE,32,10.0,24.0,24,0.00,,,-99.99,155.000000,,2013-01-16 16:12:00,
2013-01-16 09:22:00,39.0,5.0,-100.00,NNE,32,10.0,24.0,24,0.00,,,-99.99,155.000000,,2013-01-16 16:22:00,
2013-01-16 09:32:00,39.0,5.0,-100.00,NNE,32,10.0,24.0,24,0.00,,,-99.99,155.000000,,2013-01-16 16:32:00,
2013-01-16 10:02:00,48.0,8.0,-100.00,ENE,75,5.0,16.0,19,0.00,,,0.00,417.000000,,2013-01-16 17:02:00,
2013-01-16 11:02:00,47.0,9.0,-100.00,ENE,73,12.0,18.0,21,-99.99,,,-99.99,637.000000,,2013-01-16 18:02:00,
2013-01-16 11:12:00,47.0,9.0,-100.00,ENE,73,12.0,18.0,21,-99.99,,,-99.99,637.000000,,2013-01-16 18:12:00,
2013-01-16 11:22:00,47.0,9.0,-100.00,ENE,73,12.0,18.0,21,-99.99,,,-99.99,637.000000,,2013-01-16 18:22:00,
2013-01-16 11:33:00,47.0,9.0,-100.00,ENE,73,12.0,18.0,21,-99.99,,,-99.99,637.000000,,2013-01-16 18:33:00,
2013-01-16 11:53:00,41.0,10.0,-100.00,ENE,59,17.0,29.0,28,-99.99,,,0.01,645.000000,,2013-01-16 18:53:00,
2013-01-16 12:02:00,41.0,10.0,-100.00,ENE,59,17.0,29.0,28,-99.99,,,0.01,645.000000,,2013-01-16 19:02:00,
2013-01-16 12:12:00,41.0,10.0,-100.00,ENE,59,17.0,29.0,28,-99.99,,,0.01,645.000000,,2013-01-16 19:12:00,
2013-01-16 12:22:00,41.0,10.0,-100.00,ENE,59,17.0,29.0,28,-99.99,,,0.01,645.000000,,2013-01-16 19:22:00,
2013-01-16 12:32:00,41.0,10.0,-100.00,ENE,59,17.0,29.0,28,-99.99,,,0.01,645.000000,,2013-01-16 19:32:00,
2013-01-16 13:03:00,43.0,10.0,-100.00,ENE,65,18.0,26.0,26,0.00,,,0.01,884.000000,,2013-01-16 20:03:00,
2013-01-16 13:12:00,43.0,10.0,-100.00,ENE,65,18.0,26.0,26,0.00,,,0.01,884.000000,,2013-01-16 20:12:00,
2013-01-16 13:23:00,43.0,10.0,-100.00,ENE,65,18.0,26.0,26,0.00,,,0.01,884.000000,,2013-01-16 20:23:00,
2013-01-16 13:32:00,43.0,10.0,-100.00,ENE,65,18.0,26.0,26,0.00,,,0.01,884.000000,,2013-01-16 20:32:00,
2013-01-16 14:02:00,43.0,10.0,-100.00,ENE,72,13.0,26.0,26,0.00,,,0.01,885.000000,,2013-01-16 21:02:00,
2013-01-16 14:12:00,43.0,10.0,-100.00,ENE,72,13.0,26.0,26,0.00,,,0.01,885.000000,,2013-01-16 21:12:00,
2013-01-16 14:22:00,43.0,10.0,-100.00,ENE,72,13.0,26.0,26,0.00,,,0.01,885.000000,,2013-01-16 21:22:00,
2013-01-16 14:32:00,43.0,10.0,-100.00,ENE,72,13.0,26.0,26,0.00,,,0.01,885.000000,,2013-01-16 21:32:00,
2013-01-16 14:53:00,42.0,10.0,-100.00,ENE,66,14.0,23.0,27,0.00,,,-99.99,801.000000,,2013-01-16 21:53:00,
2013-01-16 15:02:00,42.0,10.0,-100.00,ENE,66,14.0,23.0,27,0.00,,,-99.99,801.000000,,2013-01-16 22:02:00,
2013-01-16 15:12:00,42.0,10.0,-100.00,ENE,66,14.0,23.0,27,0.00,,,-99.99,801.000000,,2013-01-16 22:12:00,
2013-01-16 15:22:00,42.0,10.0,-100.00,ENE,66,14.0,23.0,27,0.00,,,-99.99,801.000000,,2013-01-16 22:22:00,
2013-01-16 15:32:00,42.0,10.0,-100.00,ENE,66,14.0,23.0,27,0.00,,,-99.99,801.000000,,2013-01-16 22:32:00,
2013-01-16 16:02:00,42.0,10.0,-100.00,ENE,64,11.0,22.0,26,0.00,,,-99.99,635.000000,,2013-01-16 23:02:00,
2013-01-16 16:12:00,42.0,10.0,-100.00,ENE,64,11.0,22.0,26,0.00,,,-99.99,635.000000,,2013-01-16 23:12:00,
2013-01-16 16:22:00,42.0,10.0,-100.00,ENE,64,11.0,22.0,26,0.00,,,-99.99,635.000000,,2013-01-16 23:22:00,
2013-01-16 16:32:00,42.0,10.0,-100.00,ENE,64,11.0,22.0,26,0.00,,,-99.99,635.000000,,2013-01-16 23:32:00,
2013-01-16 16:53:00,42.0,10.0,-100.00,ENE,65,12.0,18.0,26,0.00,,,0.01,407.000000,,2013-01-16 23:53:00,
2013-01-16 17:02:00,42.0,10.0,-100.00,ENE,65,12.0,18.0,26,0.00,,,0.01,407.000000,,2013-01-17 00:02:00,
2013-01-16 17:12:00,42.0,10.0,-100.00,ENE,65,12.0,18.0,26,0.00,,,0.01,407.000000,,2013-01-17 00:12:00,
2013-01-16 17:22:00,42.0,10.0,-100.00,ENE,65,12.0,18.0,26,0.00,,,0.01,407.000000,,2013-01-17 00:22:00,
2013-01-16 17:32:00,42.0,10.0,-100.00,ENE,65,12.0,18.0,26,0.00,,,0.01,407.000000,,2013-01-17 00:32:00,
2013-01-16 18:02:00,38.0,9.0,-100.00,NE,48,6.0,15.0,29,0.00,,,0.01,119.000000,,2013-01-17 01:02:00,
2013-01-16 18:12:00,38.0,9.0,-100.00,NE,48,6.0,15.0,29,0.00,,,0.01,119.000000,,2013-01-17 01:12:00,
2013-01-16 18:22:00,38.0,9.0,-100.00,NE,48,6.0,15.0,29,0.00,,,0.01,119.000000,,2013-01-17 01:22:00,
2013-01-16 18:32:00,38.0,9.0,-100.00,NE,48,6.0,15.0,29,0.00,,,0.01,119.000000,,2013-01-17 01:32:00,
2013-01-16 19:02:00,38.0,9.0,-100.00,NE,55,9.0,14.0,29,0.00,,,0.01,2.000000,,2013-01-17 02:02:00,
2013-01-16 19:12:00,38.0,9.0,-100.00,NE,55,9.0,14.0,29,0.00,,,0.01,2.000000,,2013-01-17 02:12:00,
2013-01-16 19:22:00,38.0,9.0,-100.00,NE,55,9.0,14.0,29,0.00,,,0.01,2.000000,,2013-01-17 02:22:00,
2013-01-16 19:32:00,38.0,9.0,-100.00,NE,55,9.0,14.0,29,0.00,,,0.01,2.000000,,2013-01-17 02:32:00,
2013-01-16 20:02:00,39.0,9.0,-100.00,ENE,59,11.0,16.0,28,0.00,,,0.01,0.000000,,2013-01-17 03:02:00,
2013-01-16 20:12:00,39.0,9.0,-100.00,ENE,59,11.0,16.0,28,0.00,,,0.01,0.000000,,2013-01-17 03:12:00,
2013-01-16 20:22:00,39.0,9.0,-100.00,ENE,59,11.0,16.0,28,0.00,,,0.01,0.000000,,2013-01-17 03:22:00,
2013-01-16 20:32:00,39.0,9.0,-100.00,ENE,59,11.0,16.0,28,0.00,,,0.01,0.000000,,2013-01-17 03:32:00,
2013-01-16 21:02:00,40.0,8.0,-100.00,NE,50,11.0,16.0,26,0.00,,,0.01,0.000000,,2013-01-17 04:02:00,
2013-01-16 21:12:00,40.0,8.0,-100.00,NE,50,11.0,16.0,26,0.00,,,0.01,0.000000,,2013-01-17 04:12:00,
2013-01-16 21:22:00,40.0,8.0,-100.00,NE,50,11.0,16.0,26,0.00,,,0.01,0.000000,,2013-01-17 04:22:00,
2013-01-16 21:32:00,40.0,8.0,-100.00,NE,50,11.0,16.0,26,0.00,,,0.01,0.000000,,2013-01-17 04:32:00,
2013-01-16 22:04:00,40.0,8.0,-100.00,NE,53,11.0,16.0,26,0.00,,,0.01,0.000000,,2013-01-17 05:04:00,
2013-01-16 22:12:00,40.0,8.0,-100.00,NE,53,11.0,16.0,26,0.00,,,0.01,0.000000,,2013-01-17 05:12:00,
2013-01-16 22:22:00,40.0,8.0,-100.00,NE,53,11.0,16.0,26,0.00,,,0.01,0.000000,,2013-01-17 05:22:00,
2013-01-16 22:32:00,40.0,8.0,-100.00,NE,53,11.0,16.0,26,0.00,,,0.01,0.000000,,2013-01-17 05:32:00,
2013-01-16 22:53:00,40.0,9.0,-100.00,NE,48,9.0,18.0,27,0.00,,,-99.99,0.000000,,2013-01-17 05:53:00,
2013-01-16 23:02:00,40.0,9.0,-100.00,NE,48,9.0,18.0,27,0.00,,,-99.99,0.000000,,2013-01-17 06:02:00,
2013-01-16 23:12:00,40.0,9.0,-100.00,NE,48,9.0,18.0,27,0.00,,,-99.99,0.000000,,2013-01-17 06:12:00,
2013-01-16 23:22:00,40.0,9.0,-100.00,NE,48,9.0,18.0,27,0.00,,,-99.99,0.000000,,2013-01-17 06:22:00,
2013-01-16 23:32:00,40.0,9.0,-100.00,NE,48,9.0,18.0,27,0.00,,,-99.99,0.000000,,2013-01-17 06:32:00,